< < Back
Terminal Aerodrome Forecast


Current Version              Previous Versions:   1  2  3  4  5  6  7  8  9  

Terminal Aerodrome Forecast

421
FTUS42 KGSP 041331 AAA
TAFCLT
TAF AMD
KCLT 041331Z 0414/0512 25004KT P6SM FEW050 SCT250
     FM041800 30005KT P6SM SCT060 BKN250
     FM050200 00000KT P6SM FEW060 BKN250=

Latest METAR

201
SAUS70 KWBC 050400 RRB
MTRCLT
METAR KCLT 050352Z 03003KT 10SM FEW150 26/18 A3001 RMK AO2 SLP152
T02560178


USA.gov is the U.S. government's official web portal to all federal, state and local government web resources and services.